YATR weather

Amphitheatre Airport
Victoria, Australia

Public forecast

Using degrees Celsius for public forecast. Weather courtesy of forecast.io.

Closest aviation weather report (METAR) to Amphitheatre Airport

Closest report is Avalon Airport, 72.3 nm (133.9 km) SE. Retrieved 2020/06/04 13:00 UTC (21 minutes ago):

YMAV 041300Z AUTO 30004KT 9999 // NCD 03/03 Q1032 RF000/0000

Closest aviation forecast (TAF) to Amphitheatre Airport

Closest forecast is Avalon Airport, 72.3 nm (133.9 km) SE. Retrieved 2020/06/04 12:00 UTC (1 hour ago):

TAF YMAV 041045Z 0412/0512 29008KT CAVOK